createdAt,value
2018-02-09T00:01:15.079Z,54.44
2018-02-09T00:02:52.439Z,54.44
2018-02-09T00:04:29.177Z,54.46
2018-02-09T00:06:06.344Z,54.45
2018-02-09T00:07:42.805Z,54.46
2018-02-09T00:09:19.178Z,54.46
2018-02-09T00:10:55.958Z,54.47
2018-02-09T00:12:32.354Z,54.48
2018-02-09T00:14:08.821Z,54.47
2018-02-09T00:15:45.486Z,54.46
2018-02-09T00:17:22.516Z,54.44
2018-02-09T00:18:58.957Z,54.44
2018-02-09T00:20:35.420Z,54.40
2018-02-09T00:22:16.593Z,54.43
2018-02-09T00:23:53.648Z,54.43
2018-02-09T00:25:30.105Z,54.43
2018-02-09T00:27:06.490Z,54.46
2018-02-09T00:28:42.989Z,54.47
2018-02-09T00:30:20.413Z,54.47
2018-02-09T00:31:57.079Z,54.48
2018-02-09T00:33:33.608Z,54.48
2018-02-09T00:35:11.574Z,54.47
2018-02-09T00:36:49.434Z,54.49
2018-02-09T00:38:25.994Z,54.48
2018-02-09T00:40:02.489Z,54.47
2018-02-09T00:41:39.880Z,54.47
2018-02-09T00:43:17.881Z,54.47
2018-02-09T00:44:54.336Z,54.46
2018-02-09T00:46:31.442Z,54.48
2018-02-09T00:48:08.663Z,54.48
2018-02-09T00:49:47.115Z,54.48
2018-02-09T00:51:24.993Z,54.50
2018-02-09T00:53:01.527Z,54.49
2018-02-09T00:54:38.611Z,54.50
2018-02-09T00:56:16.238Z,54.49
2018-02-09T00:57:52.681Z,54.49
2018-02-09T00:59:29.149Z,54.49
2018-02-09T01:01:06.384Z,54.50
2018-02-09T01:02:44.032Z,54.50
2018-02-09T01:04:20.486Z,54.50
2018-02-09T01:05:56.881Z,54.51
2018-02-09T01:07:34.097Z,54.51
2018-02-09T01:09:10.920Z,54.51
2018-02-09T01:10:47.298Z,54.52
2018-02-09T01:12:23.628Z,54.52
2018-02-09T01:14:00.063Z,54.53
2018-02-09T01:15:36.860Z,54.53
2018-02-09T01:17:13.236Z,54.53
2018-02-09T01:18:49.611Z,54.54
2018-02-09T01:20:26.056Z,54.48
2018-02-09T01:22:03.542Z,54.53
2018-02-09T01:23:40.010Z,54.55
2018-02-09T01:25:17.144Z,54.55
2018-02-09T01:26:53.548Z,54.56
2018-02-09T01:28:30.493Z,54.56
2018-02-09T01:30:08.277Z,54.57
2018-02-09T01:31:44.804Z,54.57
2018-02-09T01:33:21.220Z,54.60
2018-02-09T01:34:58.140Z,54.59
2018-02-09T01:36:35.325Z,54.60
2018-02-09T01:38:11.668Z,54.60
2018-02-09T01:39:48.150Z,54.60
2018-02-09T01:41:25.868Z,54.62
2018-02-09T01:43:02.259Z,54.62
2018-02-09T01:44:38.604Z,54.64
2018-02-09T01:46:15.741Z,54.64
2018-02-09T01:47:53.301Z,54.64
2018-02-09T01:49:29.795Z,54.65
2018-02-09T01:51:06.215Z,54.66
2018-02-09T01:52:42.609Z,54.68
2018-02-09T01:54:20.269Z,54.67
2018-02-09T01:55:56.666Z,54.69
2018-02-09T01:57:33.293Z,54.70
2018-02-09T01:59:10.367Z,54.71
2018-02-09T02:00:48.103Z,54.73
2018-02-09T02:02:25.064Z,54.73
2018-02-09T02:04:01.543Z,54.70
2018-02-09T02:05:37.917Z,54.75
2018-02-09T02:07:14.722Z,54.76
2018-02-09T02:08:51.128Z,54.77
2018-02-09T02:10:27.584Z,54.78
2018-02-09T02:12:03.964Z,54.77
2018-02-09T02:13:40.850Z,54.79
2018-02-09T02:15:18.286Z,54.83
2018-02-09T02:16:55.463Z,54.82
2018-02-09T02:18:31.944Z,54.82
2018-02-09T02:20:09.728Z,54.83
2018-02-09T02:21:46.271Z,54.84
2018-02-09T02:23:22.688Z,54.86
2018-02-09T02:24:59.453Z,54.87
2018-02-09T02:26:36.313Z,54.87
2018-02-09T02:28:12.763Z,54.88
2018-02-09T02:29:49.101Z,54.88
2018-02-09T02:31:25.801Z,54.90
2018-02-09T02:33:02.278Z,54.92
2018-02-09T02:34:38.706Z,54.92
2018-02-09T02:36:15.786Z,54.95
2018-02-09T02:37:52.779Z,54.96
2018-02-09T02:39:29.346Z,54.97
2018-02-09T02:41:05.784Z,54.97
2018-02-09T02:42:42.245Z,54.98
2018-02-09T02:44:19.121Z,55.00
2018-02-09T02:45:55.591Z,55.00
2018-02-09T02:47:32.077Z,55.00
2018-02-09T02:49:08.526Z,55.01
2018-02-09T02:50:45.329Z,55.02
2018-02-09T02:52:21.794Z,55.04
2018-02-09T02:53:58.302Z,55.04
2018-02-09T02:55:34.739Z,55.07
2018-02-09T02:57:11.374Z,55.09
2018-02-09T02:58:47.733Z,55.10
2018-02-09T03:00:24.419Z,55.10
2018-02-09T03:02:00.788Z,55.10
2018-02-09T03:03:38.358Z,55.09
2018-02-09T03:05:14.804Z,55.10
2018-02-09T03:06:51.267Z,55.12
2018-02-09T03:08:28.620Z,55.11
2018-02-09T03:10:05.381Z,55.11
2018-02-09T03:11:41.849Z,55.11
2018-02-09T03:13:18.281Z,55.12
2018-02-09T03:14:57.108Z,55.12
2018-02-09T03:16:33.885Z,55.13
2018-02-09T03:18:10.737Z,55.15
2018-02-09T03:19:47.304Z,55.11
2018-02-09T03:21:24.914Z,55.16
2018-02-09T03:23:01.997Z,55.16
2018-02-09T03:24:38.614Z,55.15
2018-02-09T03:26:15.218Z,55.15
2018-02-09T03:27:51.792Z,55.15
2018-02-09T03:29:28.734Z,55.15
2018-02-09T03:31:05.518Z,55.17
2018-02-09T03:32:48.872Z,55.18
2018-02-09T03:34:25.926Z,55.20
2018-02-09T03:36:02.709Z,55.21
2018-02-09T03:37:40.357Z,55.23
2018-02-09T03:39:16.909Z,55.22
2018-02-09T03:40:54.184Z,55.22
2018-02-09T03:42:30.832Z,55.23
2018-02-09T03:44:07.301Z,55.21
2018-02-09T03:45:44.220Z,55.22
2018-02-09T03:47:21.410Z,55.21
2018-02-09T03:48:58.101Z,55.22
2018-02-09T03:50:34.596Z,55.22
2018-02-09T03:52:11.436Z,55.24
2018-02-09T03:53:48.497Z,55.27
2018-02-09T03:55:25.506Z,55.30
2018-02-09T03:57:04.618Z,55.30
2018-02-09T03:58:41.230Z,55.32
2018-02-09T04:01:48.355Z,55.33
2018-02-09T04:03:24.768Z,55.34
2018-02-09T04:05:01.112Z,55.36
2018-02-09T04:06:38.125Z,55.38
2018-02-09T04:08:14.939Z,55.43
2018-02-09T04:09:51.372Z,55.42
2018-02-09T04:11:27.690Z,55.42
2018-02-09T04:13:04.207Z,55.42
2018-02-09T04:14:41.606Z,55.44
2018-02-09T04:16:18.593Z,55.44
2018-02-09T04:17:55.003Z,55.46
2018-02-09T04:19:31.396Z,55.46
2018-02-09T04:21:08.151Z,55.48
2018-02-09T04:22:45.103Z,55.49
2018-02-09T04:24:21.889Z,55.51
2018-02-09T04:25:58.207Z,55.53
2018-02-09T04:27:35.679Z,55.55
2018-02-09T04:29:11.950Z,55.54
2018-02-09T04:30:49.035Z,55.55
2018-02-09T04:32:26.389Z,55.55
2018-02-09T04:34:03.421Z,55.59
2018-02-09T04:35:39.917Z,55.60
2018-02-09T04:37:17.933Z,55.59
2018-02-09T04:38:54.564Z,55.58
2018-02-09T04:40:31.228Z,55.58
2018-02-09T04:42:07.484Z,55.57
2018-02-09T04:43:43.819Z,55.58
2018-02-09T04:45:21.216Z,55.59
2018-02-09T04:46:59.640Z,55.56
2018-02-09T04:48:35.986Z,55.61
2018-02-09T04:50:12.404Z,55.61
2018-02-09T04:51:48.848Z,55.61
2018-02-09T04:53:25.716Z,55.61
2018-02-09T04:55:02.766Z,55.61
2018-02-09T04:56:40.200Z,55.62
2018-02-09T04:58:16.525Z,55.60
2018-02-09T04:59:53.216Z,55.62
2018-02-09T05:01:29.530Z,55.61
2018-02-09T05:03:05.972Z,55.60
2018-02-09T05:04:43.081Z,55.60
2018-02-09T05:06:20.375Z,55.61
2018-02-09T05:07:56.754Z,55.62
2018-02-09T05:09:33.267Z,55.61
2018-02-09T05:11:10.413Z,55.60
2018-02-09T05:12:47.200Z,55.60
2018-02-09T05:14:23.826Z,55.53
2018-02-09T05:16:00.153Z,55.63
2018-02-09T05:17:36.569Z,55.64
2018-02-09T05:19:13.294Z,55.64
2018-02-09T05:20:49.755Z,55.66
2018-02-09T05:22:26.612Z,55.67
2018-02-09T05:24:03.825Z,55.68
2018-02-09T05:25:40.527Z,55.69
2018-02-09T05:27:17.625Z,55.70
2018-02-09T05:28:54.067Z,55.71
2018-02-09T05:30:30.386Z,55.72
2018-02-09T05:32:07.837Z,55.73
2018-02-09T05:33:44.271Z,55.74
2018-02-09T05:35:20.600Z,55.74
2018-02-09T05:36:59.760Z,55.75
2018-02-09T05:38:37.499Z,55.77
2018-02-09T05:40:13.907Z,55.80
2018-02-09T05:41:50.248Z,55.82
2018-02-09T05:43:26.603Z,55.84
2018-02-09T05:45:04.729Z,55.86
2018-02-09T05:46:41.249Z,55.88
2018-02-09T05:48:17.661Z,55.92
2018-02-09T05:49:54.013Z,55.96
2018-02-09T05:51:30.390Z,56.01
2018-02-09T05:53:06.713Z,55.96
2018-02-09T05:54:44.308Z,55.95
2018-02-09T05:56:22.424Z,55.92
2018-02-09T05:57:59.357Z,55.92
2018-02-09T05:59:36.517Z,55.91
2018-02-09T06:01:12.946Z,55.90
2018-02-09T06:02:49.373Z,55.89
2018-02-09T06:04:27.047Z,55.89
2018-02-09T06:06:03.573Z,55.90
2018-02-09T06:07:40.636Z,55.92
2018-02-09T06:09:17.036Z,55.92
2018-02-09T06:10:53.847Z,55.93
2018-02-09T06:12:30.984Z,55.95
2018-02-09T06:14:07.333Z,55.98
2018-02-09T06:15:43.745Z,55.97
2018-02-09T06:17:20.703Z,55.98
2018-02-09T06:18:57.200Z,55.96
2018-02-09T06:20:34.410Z,55.95
2018-02-09T06:22:11.266Z,55.96
2018-02-09T06:23:48.076Z,55.99
2018-02-09T06:25:24.513Z,56.03
2018-02-09T06:27:00.970Z,56.06
2018-02-09T06:28:38.372Z,56.05
2018-02-09T06:30:19.608Z,56.06
2018-02-09T06:31:56.041Z,56.08
2018-02-09T06:33:33.485Z,56.08
2018-02-09T06:35:09.934Z,56.08
2018-02-09T06:36:46.341Z,56.09
2018-02-09T06:38:22.773Z,56.08
2018-02-09T06:39:59.157Z,56.09
2018-02-09T06:41:35.669Z,56.09
2018-02-09T06:43:13.072Z,56.10
2018-02-09T06:44:49.524Z,56.11
2018-02-09T06:46:25.976Z,56.13
2018-02-09T06:48:03.217Z,56.14
2018-02-09T06:49:39.975Z,56.14
2018-02-09T06:51:17.230Z,56.17
2018-02-09T06:52:53.643Z,56.16
2018-02-09T06:56:01.588Z,56.14
2018-02-09T06:57:41.995Z,56.11
2018-02-09T06:59:18.596Z,56.11
2018-02-09T07:00:55.969Z,56.12
2018-02-09T07:02:32.841Z,56.11
2018-02-09T07:04:10.043Z,56.11
2018-02-09T07:05:46.528Z,56.12
2018-02-09T07:07:22.962Z,56.12
2018-02-09T07:09:00.779Z,56.11
2018-02-09T07:10:37.385Z,56.14
2018-02-09T07:12:13.801Z,56.14
2018-02-09T07:13:50.270Z,56.15
2018-02-09T07:15:27.083Z,56.17
2018-02-09T07:17:03.659Z,56.18
2018-02-09T07:20:26.003Z,56.21
2018-02-09T07:22:02.591Z,56.22
2018-02-09T07:23:39.028Z,56.24
2018-02-09T07:30:12.519Z,56.29
2018-02-09T07:31:57.425Z,56.32
2018-02-09T07:33:38.321Z,56.32
2018-02-09T07:35:15.341Z,56.35
2018-02-09T07:36:51.777Z,56.36
2018-02-09T07:38:29.354Z,56.39
2018-02-09T07:40:06.101Z,56.41
2018-02-09T07:41:42.684Z,56.42
2018-02-09T07:43:19.100Z,56.41
2018-02-09T07:44:55.920Z,56.42
2018-02-09T07:46:37.858Z,56.44
2018-02-09T08:02:59.840Z,56.56
2018-02-09T08:06:25.091Z,56.57
2018-02-09T08:08:01.869Z,56.61
2018-02-09T08:09:38.426Z,56.62
2018-02-09T08:11:15.946Z,56.65
2018-02-09T08:12:52.854Z,56.61
2018-02-09T08:14:30.449Z,56.66
2018-02-09T08:16:07.083Z,56.67
2018-02-09T08:17:44.617Z,56.69
2018-02-09T08:19:21.949Z,56.69
2018-02-09T08:20:59.181Z,56.75
2018-02-09T08:22:42.305Z,56.77
2018-02-09T08:26:13.705Z,56.86
2018-02-09T08:27:53.416Z,56.95
2018-02-09T08:31:53.952Z,57.18
2018-02-09T08:33:30.596Z,57.23
2018-02-09T08:35:07.797Z,57.28
2018-02-09T08:36:45.095Z,57.29
2018-02-09T08:38:21.902Z,57.30
2018-02-09T08:41:40.578Z,57.44
2018-02-09T08:43:16.983Z,57.46
2018-02-09T08:44:53.650Z,57.46
2018-02-09T08:54:37.145Z,57.33
2018-02-09T08:58:22.017Z,57.44
2018-02-09T09:02:28.027Z,57.58
2018-02-09T09:04:05.080Z,57.63
2018-02-09T09:05:41.507Z,57.65
2018-02-09T09:07:18.116Z,57.65
2018-02-09T09:08:54.520Z,57.61
2018-02-09T09:21:53.659Z,57.46
2018-02-09T09:23:30.689Z,57.43
2018-02-09T09:25:13.728Z,57.45
2018-02-09T09:26:54.523Z,57.47
2018-02-09T09:39:14.820Z,57.72
2018-02-09T09:42:36.272Z,57.63
2018-02-09T09:44:12.627Z,57.61
2018-02-09T09:45:49.419Z,57.68
2018-02-09T09:47:26.198Z,57.70
2018-02-09T09:49:02.704Z,57.70
2018-02-09T09:50:41.072Z,57.66
2018-02-09T09:52:17.504Z,57.73
2018-02-09T09:53:55.122Z,57.74
2018-02-09T09:55:31.832Z,57.78
2018-02-09T09:57:08.527Z,57.83
2018-02-09T09:58:46.528Z,57.84
2018-02-09T10:00:34.160Z,57.75
2018-02-09T10:02:30.722Z,57.67
2018-02-09T10:04:13.665Z,57.74
2018-02-09T10:13:21.029Z,58.02
2018-02-09T10:14:57.594Z,58.05
2018-02-09T10:26:54.767Z,58.10
2018-02-09T10:28:31.563Z,58.08
2018-02-09T10:33:35.735Z,58.14
2018-02-09T10:35:28.060Z,58.25
2018-02-09T10:37:11.407Z,58.28
2018-02-09T10:42:00.736Z,58.30
2018-02-09T10:43:37.683Z,58.33
2018-02-09T10:45:15.954Z,58.29
2018-02-09T10:46:52.812Z,58.35
2018-02-09T10:48:29.844Z,58.23
2018-02-09T10:50:06.794Z,58.27
2018-02-09T10:51:44.451Z,58.29
2018-02-09T11:00:43.274Z,58.20
2018-02-09T11:05:40.045Z,58.15
2018-02-09T11:09:19.585Z,58.11
2018-02-09T11:10:56.233Z,58.18
2018-02-09T11:12:37.034Z,58.23
2018-02-09T11:14:13.639Z,58.29
2018-02-09T11:21:14.957Z,58.38
2018-02-09T11:24:43.767Z,58.27
2018-02-09T11:26:20.616Z,58.29
2018-02-09T11:31:28.709Z,58.32
2018-02-09T11:33:05.809Z,58.32
2018-02-09T11:34:42.286Z,58.34
2018-02-09T11:36:18.878Z,58.39
2018-02-09T11:37:55.572Z,58.46
2018-02-09T11:39:32.089Z,58.45
2018-02-09T11:41:09.470Z,58.46
2018-02-09T11:42:46.970Z,58.52
2018-02-09T11:44:24.066Z,58.52
2018-02-09T11:46:06.364Z,58.51
2018-02-09T11:47:50.706Z,58.52
2018-02-09T11:51:12.405Z,58.49
2018-02-09T11:53:01.140Z,58.51
2018-02-09T11:56:33.279Z,58.67
2018-02-09T11:58:09.852Z,58.77
2018-02-09T11:59:46.807Z,58.83
2018-02-09T12:01:23.299Z,58.85
2018-02-09T12:05:33.312Z,58.84
2018-02-09T12:07:15.818Z,58.73
2018-02-09T12:10:41.984Z,58.67
2018-02-09T12:12:19.142Z,58.62
2018-02-09T12:13:55.682Z,58.66
2018-02-09T12:15:32.198Z,58.70
2018-02-09T12:17:09.599Z,58.74
2018-02-09T12:18:48.056Z,58.79
2018-02-09T12:20:24.602Z,58.82
2018-02-09T12:22:01.811Z,58.90
2018-02-09T12:23:41.545Z,58.96
2018-02-09T12:25:18.325Z,58.97
2018-02-09T12:26:54.771Z,59.02
2018-02-09T12:28:31.378Z,59.07
2018-02-09T12:30:08.572Z,59.10
2018-02-09T12:31:45.781Z,59.12
2018-02-09T12:40:21.961Z,59.04
2018-02-09T12:52:17.056Z,58.98
2018-02-09T12:53:56.313Z,58.99
2018-02-09T12:55:36.762Z,58.96
2018-02-09T12:57:23.066Z,59.02
2018-02-09T13:00:56.390Z,59.12
2018-02-09T13:02:33.481Z,59.13
2018-02-09T13:04:13.752Z,59.14
2018-02-09T13:05:50.415Z,59.15
2018-02-09T13:07:28.487Z,59.09
2018-02-09T13:09:05.225Z,59.06
2018-02-09T13:10:45.171Z,59.01
2018-02-09T13:12:34.735Z,58.94
2018-02-09T13:17:33.383Z,58.89
2018-02-09T13:19:17.337Z,58.92
2018-02-09T13:24:46.200Z,59.04
2018-02-09T13:26:23.512Z,58.93
2018-02-09T13:27:59.946Z,58.92
2018-02-09T13:29:36.445Z,58.96
2018-02-09T13:31:15.268Z,59.04
2018-02-09T13:33:08.118Z,59.08
2018-02-09T13:34:44.845Z,59.14
2018-02-09T13:36:31.355Z,59.17
2018-02-09T13:38:09.600Z,59.09
2018-02-09T13:39:46.209Z,59.10
2018-02-09T13:41:22.890Z,59.15
2018-02-09T13:43:02.146Z,59.19
2018-02-09T13:44:38.713Z,59.21
2018-02-09T13:46:17.894Z,59.20
2018-02-09T13:47:57.846Z,59.12
2018-02-09T13:49:39.892Z,59.07
2018-02-09T14:00:31.638Z,59.13
2018-02-09T14:02:10.218Z,59.17
2018-02-09T14:03:47.322Z,59.20
2018-02-09T14:05:24.632Z,59.21
2018-02-09T14:18:14.777Z,59.05
2018-02-09T14:21:31.428Z,59.11
2018-02-09T14:23:09.275Z,59.23
2018-02-09T14:24:47.243Z,59.27
2018-02-09T14:26:23.724Z,59.30
2018-02-09T14:28:01.470Z,59.33
2018-02-09T14:29:38.480Z,59.33
2018-02-09T14:35:38.821Z,59.26
2018-02-09T14:37:18.138Z,59.30
2018-02-09T14:42:40.266Z,59.29
2018-02-09T14:44:17.698Z,59.25
2018-02-09T14:45:54.306Z,59.18
2018-02-09T14:47:32.041Z,59.11
2018-02-09T14:49:09.027Z,59.09
2018-02-09T14:52:44.284Z,59.04
2018-02-09T14:56:12.313Z,59.06
2018-02-09T14:57:57.118Z,59.05
2018-02-09T14:59:47.276Z,59.04
2018-02-09T15:01:54.696Z,59.05
2018-02-09T15:03:36.749Z,59.08
2018-02-09T15:05:14.005Z,59.13
2018-02-09T15:06:51.178Z,59.16
2018-02-09T15:08:27.845Z,59.19
2018-02-09T15:10:07.550Z,59.20
2018-02-09T15:11:45.436Z,59.15
2018-02-09T15:21:09.458Z,59.25
2018-02-09T15:26:18.178Z,59.27
2018-02-09T15:28:24.179Z,59.25
2018-02-09T15:30:05.485Z,59.24
2018-02-09T15:33:17.591Z,59.23
2018-02-09T15:34:59.764Z,59.23
2018-02-09T15:36:37.674Z,59.23
2018-02-09T15:38:23.545Z,59.23
2018-02-09T15:40:05.541Z,59.20
2018-02-09T15:41:47.809Z,59.17
2018-02-09T15:49:19.294Z,59.15
2018-02-09T15:50:55.975Z,59.14
2018-02-09T15:52:33.734Z,59.13
2018-02-09T15:54:11.196Z,59.11
2018-02-09T15:55:48.417Z,59.11
2018-02-09T15:57:25.090Z,59.08
2018-02-09T16:02:27.240Z,59.08
2018-02-09T16:04:03.750Z,59.08
2018-02-09T16:05:40.791Z,59.09
2018-02-09T16:07:17.715Z,59.12
2018-02-09T16:08:55.348Z,59.15
2018-02-09T16:10:35.368Z,59.15
2018-02-09T16:12:23.510Z,59.11
2018-02-09T16:14:03.904Z,59.09
2018-02-09T16:15:43.018Z,59.09
2018-02-09T16:17:29.062Z,59.05
2018-02-09T16:20:50.115Z,59.04
2018-02-09T16:24:14.796Z,59.01
2018-02-09T16:28:10.239Z,58.97
2018-02-09T16:31:50.871Z,58.89
2018-02-09T16:33:29.003Z,58.88
2018-02-09T16:40:35.200Z,58.92
2018-02-09T16:42:11.986Z,58.94
2018-02-09T16:43:48.662Z,58.96
2018-02-09T16:45:31.750Z,59.00
2018-02-09T16:47:16.762Z,59.02
2018-02-09T16:48:53.564Z,59.05
2018-02-09T16:52:44.209Z,58.99
2018-02-09T16:58:29.776Z,58.95
2018-02-09T17:00:06.506Z,58.95
2018-02-09T17:01:42.975Z,58.95
2018-02-09T17:03:20.103Z,58.89
2018-02-09T17:04:57.199Z,58.84
2018-02-09T17:06:37.769Z,58.86
2018-02-09T17:08:19.371Z,58.87
2018-02-09T17:13:19.045Z,58.93
2018-02-09T17:16:40.458Z,58.79
2018-02-09T17:18:23.883Z,58.69
2018-02-09T17:20:00.789Z,58.60
2018-02-09T17:21:39.365Z,58.55
2018-02-09T17:25:03.811Z,58.58
2018-02-09T17:26:41.127Z,58.63
2018-02-09T17:28:18.514Z,58.71
2018-02-09T17:31:58.141Z,58.73
2018-02-09T17:35:39.036Z,58.57
2018-02-09T17:44:43.520Z,58.56
2018-02-09T17:49:36.223Z,58.53
2018-02-09T17:51:17.971Z,58.44
2018-02-09T17:53:00.633Z,58.43
2018-02-09T17:57:08.277Z,58.36
2018-02-09T17:58:58.059Z,58.34
2018-02-09T18:00:36.289Z,58.29
2018-02-09T18:02:15.292Z,58.27
2018-02-09T18:03:51.953Z,58.28
2018-02-09T18:05:28.376Z,58.29
2018-02-09T18:07:04.831Z,58.28
2018-02-09T18:08:41.662Z,58.29
2018-02-09T18:10:18.327Z,58.29
2018-02-09T18:11:58.036Z,58.30
2018-02-09T18:13:37.611Z,58.28
2018-02-09T18:15:16.582Z,58.27
2018-02-09T18:16:58.889Z,58.28
2018-02-09T18:18:38.631Z,58.37
2018-02-09T18:20:16.802Z,58.38
2018-02-09T18:25:24.897Z,58.43
2018-02-09T18:28:44.261Z,58.38
2018-02-09T18:30:21.062Z,58.41
2018-02-09T18:33:40.286Z,58.45
2018-02-09T18:35:18.830Z,58.49
2018-02-09T18:36:56.227Z,58.47
2018-02-09T18:38:32.938Z,58.47
2018-02-09T18:40:13.433Z,58.51
2018-02-09T18:43:42.205Z,58.51
2018-02-09T18:45:19.987Z,58.46
2018-02-09T18:47:03.031Z,58.42
2018-02-09T18:48:40.404Z,58.38
2018-02-09T18:50:17.429Z,58.34
2018-02-09T18:51:54.505Z,58.31
2018-02-09T18:53:31.144Z,58.30
2018-02-09T18:55:10.494Z,58.34
2018-02-09T18:56:54.695Z,58.36
2018-02-09T18:59:26.672Z,58.36
2018-02-09T19:04:28.770Z,58.37
2018-02-09T19:09:25.304Z,58.41
2018-02-09T19:17:43.433Z,58.38
2018-02-09T19:19:22.154Z,58.38
2018-02-09T19:21:05.252Z,58.41
2018-02-09T19:22:49.767Z,58.40
2018-02-09T19:29:25.612Z,58.36
2018-02-09T19:31:02.694Z,58.34
2018-02-09T19:32:39.228Z,58.33
2018-02-09T19:34:17.688Z,58.30
2018-02-09T19:35:55.771Z,58.33
2018-02-09T19:37:33.920Z,58.38
2018-02-09T19:39:11.434Z,58.40
2018-02-09T19:40:49.477Z,58.41
2018-02-09T19:44:15.437Z,58.50
2018-02-09T19:47:57.454Z,58.41
2018-02-09T19:49:34.216Z,58.40
2018-02-09T19:51:11.837Z,58.39
2018-02-09T19:52:48.971Z,58.40
2018-02-09T19:54:30.851Z,58.42
2018-02-09T19:56:39.036Z,58.40
2018-02-09T19:58:17.676Z,58.37
2018-02-09T19:59:56.953Z,58.35
2018-02-09T20:03:14.164Z,58.36
2018-02-09T20:04:55.115Z,58.38
2018-02-09T20:10:15.470Z,58.46
2018-02-09T20:11:52.507Z,58.46
2018-02-09T20:13:28.928Z,58.46
2018-02-09T20:15:07.979Z,58.42
2018-02-09T20:16:44.553Z,58.42
2018-02-09T20:18:21.858Z,58.44
2018-02-09T20:21:50.136Z,58.44
2018-02-09T20:25:15.553Z,58.46
2018-02-09T20:30:34.979Z,58.43
2018-02-09T20:34:07.610Z,58.45
2018-02-09T20:35:45.224Z,58.46
2018-02-09T20:37:21.795Z,58.47
2018-02-09T20:38:59.095Z,58.47
2018-02-09T20:40:35.874Z,58.48
2018-02-09T20:42:13.033Z,58.46
2018-02-09T20:43:56.628Z,58.47
2018-02-09T20:45:42.872Z,58.46
2018-02-09T20:47:21.871Z,58.47
2018-02-09T20:49:26.833Z,58.48
2018-02-09T20:51:03.442Z,58.47
2018-02-09T20:52:40.105Z,58.44
2018-02-09T20:54:16.821Z,58.45
2018-02-09T20:55:53.527Z,58.47
2018-02-09T20:57:34.403Z,58.47
2018-02-09T20:59:10.890Z,58.48
2018-02-09T21:03:24.782Z,58.51
2018-02-09T21:05:07.691Z,58.51
2018-02-09T21:06:44.664Z,58.51
2018-02-09T21:08:21.315Z,58.51
2018-02-09T21:10:01.691Z,58.51
2018-02-09T21:11:38.637Z,58.53
2018-02-09T21:13:16.208Z,58.57
2018-02-09T21:14:53.492Z,58.57
2018-02-09T21:16:30.842Z,58.58
2018-02-09T21:18:07.370Z,58.59
2018-02-09T21:19:44.261Z,58.59
2018-02-09T21:23:19.301Z,58.66
2018-02-09T21:28:07.438Z,58.78
2018-02-09T21:29:43.953Z,58.79
2018-02-09T21:31:20.890Z,58.81
2018-02-09T21:32:57.578Z,58.79
2018-02-09T21:34:34.191Z,58.78
2018-02-09T21:36:11.810Z,58.79
2018-02-09T21:37:48.426Z,58.84
2018-02-09T21:39:32.641Z,58.90
2018-02-09T21:41:13.783Z,58.85
2018-02-09T21:42:54.892Z,58.87
2018-02-09T21:44:41.358Z,58.91
2018-02-09T21:46:17.947Z,58.94
2018-02-09T21:47:54.818Z,58.99
2018-02-09T21:49:31.468Z,59.01
2018-02-09T21:51:09.274Z,59.00
2018-02-09T21:52:45.924Z,58.97
2018-02-09T21:54:22.468Z,59.00
2018-02-09T21:57:58.371Z,58.97
2018-02-09T22:01:25.531Z,58.98
2018-02-09T22:03:02.128Z,59.01
2018-02-09T22:04:38.702Z,58.96
2018-02-09T22:06:15.940Z,58.91
2018-02-09T22:07:52.640Z,58.92
2018-02-09T22:09:30.400Z,58.95
2018-02-09T22:11:06.952Z,58.95
2018-02-09T22:12:51.701Z,58.93
2018-02-09T22:14:36.323Z,58.91
2018-02-09T22:16:13.319Z,58.90
2018-02-09T22:17:49.908Z,58.89
2018-02-09T22:19:26.484Z,58.91
2018-02-09T22:21:05.957Z,58.96
2018-02-09T22:22:42.857Z,58.98
2018-02-09T22:24:20.142Z,58.94
2018-02-09T22:25:56.634Z,58.98
2018-02-09T22:27:33.230Z,59.02
2018-02-09T22:29:15.509Z,59.02
2018-02-09T22:31:00.195Z,59.06
2018-02-09T22:36:10.976Z,59.18
2018-02-09T22:37:47.664Z,59.22
2018-02-09T22:39:24.435Z,59.26
2018-02-09T22:41:01.757Z,59.26
2018-02-09T22:42:38.271Z,59.28
2018-02-09T22:44:15.003Z,59.30
2018-02-09T22:45:52.489Z,59.29
2018-02-09T22:47:31.648Z,59.30
2018-02-09T22:49:08.144Z,59.32
2018-02-09T22:50:44.757Z,59.32
2018-02-09T22:52:28.535Z,59.35
2018-02-09T22:56:09.430Z,59.35
2018-02-09T23:00:10.755Z,59.40
2018-02-09T23:01:47.462Z,59.40
2018-02-09T23:03:24.088Z,59.32
2018-02-09T23:05:00.708Z,59.33
2018-02-09T23:06:38.579Z,59.36
2018-02-09T23:08:15.961Z,59.37
2018-02-09T23:09:53.676Z,59.40
2018-02-09T23:11:30.195Z,59.42
2018-02-09T23:27:13.791Z,59.50
2018-02-09T23:28:50.177Z,59.53
2018-02-09T23:30:27.996Z,59.54
2018-02-09T23:32:05.107Z,59.55
2018-02-09T23:33:41.429Z,59.56
2018-02-09T23:35:18.609Z,59.56
2018-02-09T23:36:56.412Z,59.55
2018-02-09T23:38:33.052Z,59.56
2018-02-09T23:40:09.454Z,59.55
2018-02-09T23:41:45.850Z,59.55
2018-02-09T23:43:22.244Z,59.52
2018-02-09T23:44:58.997Z,59.51
2018-02-09T23:46:35.364Z,59.53
2018-02-09T23:48:11.756Z,59.55
2018-02-09T23:49:48.208Z,59.56
2018-02-09T23:51:25.241Z,59.57
2018-02-09T23:53:01.577Z,59.59
2018-02-09T23:54:39.453Z,59.57
2018-02-09T23:56:19.233Z,59.57
2018-02-09T23:57:55.840Z,59.58
2018-02-09T23:59:32.177Z,59.56
